createdAt,value
2019-03-31T00:00:10.099Z,13.85
2019-03-31T00:01:10.022Z,13.78
2019-03-31T00:02:10.001Z,13.77
2019-03-31T00:03:09.979Z,13.80
2019-03-31T00:04:10.012Z,13.78
2019-03-31T00:05:09.971Z,13.75
2019-03-31T00:06:10.047Z,13.80
2019-03-31T00:07:09.923Z,13.78
2019-03-31T00:08:09.929Z,13.83
2019-03-31T00:09:09.932Z,13.80
2019-03-31T00:10:09.940Z,13.80
2019-03-31T00:11:09.903Z,13.77
2019-03-31T00:12:09.869Z,13.71
2019-03-31T00:13:09.895Z,13.74
2019-03-31T00:14:09.869Z,13.70
2019-03-31T00:15:09.841Z,13.68
2019-03-31T00:16:09.867Z,13.70
2019-03-31T00:17:09.814Z,13.67
2019-03-31T00:18:09.899Z,13.64
2019-03-31T00:19:09.806Z,13.64
2019-03-31T00:20:09.800Z,13.68
2019-03-31T00:21:09.787Z,13.68
2019-03-31T00:22:09.755Z,13.60
2019-03-31T00:23:09.749Z,13.59
2019-03-31T00:24:09.744Z,13.60
2019-03-31T00:25:09.776Z,13.56
2019-03-31T00:26:09.761Z,13.55
2019-03-31T00:27:09.722Z,13.55
2019-03-31T00:28:09.720Z,13.60
2019-03-31T00:29:09.682Z,13.57
2019-03-31T00:30:09.689Z,13.60
2019-03-31T00:31:21.422Z,13.56
2019-03-31T00:32:10.655Z,13.57
2019-03-31T00:33:09.650Z,13.57
2019-03-31T00:34:09.621Z,13.56
2019-03-31T00:35:09.697Z,13.50
2019-03-31T00:36:09.627Z,13.49
2019-03-31T00:37:09.613Z,13.52
2019-03-31T00:38:09.618Z,13.53
2019-03-31T00:39:09.583Z,13.53
2019-03-31T00:40:09.560Z,13.52
2019-03-31T00:41:09.592Z,13.53
2019-03-31T00:42:09.625Z,13.55
2019-03-31T00:43:09.573Z,13.60
2019-03-31T00:44:09.515Z,13.59
2019-03-31T00:45:09.514Z,13.59
2019-03-31T00:46:09.493Z,13.60
2019-03-31T00:47:09.558Z,13.59
2019-03-31T00:48:09.482Z,13.56
2019-03-31T00:49:09.466Z,13.50
2019-03-31T00:50:09.443Z,13.49
2019-03-31T00:51:09.438Z,13.57
2019-03-31T00:52:09.443Z,13.57
2019-03-31T00:53:09.425Z,13.59
2019-03-31T00:54:09.426Z,13.59
2019-03-31T00:55:09.423Z,13.57
2019-03-31T00:56:09.391Z,13.60
2019-03-31T00:57:09.380Z,13.59
2019-03-31T00:58:09.354Z,13.67
2019-03-31T00:59:09.378Z,13.49
2019-03-31T01:00:09.331Z,13.56
2019-03-31T01:01:09.339Z,13.63
2019-03-31T01:02:09.399Z,13.56
2019-03-31T01:03:09.302Z,13.56
2019-03-31T01:04:09.289Z,13.52
2019-03-31T01:05:09.325Z,13.60
2019-03-31T01:06:09.262Z,13.67
2019-03-31T01:07:09.286Z,13.60
2019-03-31T01:08:09.346Z,13.67
2019-03-31T01:09:09.233Z,13.60
2019-03-31T01:10:09.228Z,13.50
2019-03-31T01:11:09.223Z,13.56
2019-03-31T01:12:09.219Z,13.57
2019-03-31T01:13:09.194Z,13.59
2019-03-31T01:14:09.183Z,13.59
2019-03-31T01:15:09.195Z,13.56
2019-03-31T01:16:09.180Z,13.52
2019-03-31T01:17:09.177Z,13.50
2019-03-31T01:18:09.174Z,13.50
2019-03-31T01:19:09.124Z,13.52
2019-03-31T01:20:09.118Z,13.53
2019-03-31T01:21:09.116Z,13.45
2019-03-31T01:22:09.113Z,13.45
2019-03-31T01:23:09.074Z,13.47
2019-03-31T01:24:09.072Z,13.49
2019-03-31T01:25:09.063Z,13.41
2019-03-31T01:26:09.070Z,13.38
2019-03-31T01:27:09.069Z,13.37
2019-03-31T01:28:09.067Z,13.37
2019-03-31T01:29:09.032Z,13.30
2019-03-31T01:30:09.011Z,13.35
2019-03-31T01:31:08.991Z,13.31
2019-03-31T01:32:09.013Z,13.37
2019-03-31T01:33:08.994Z,13.22
2019-03-31T01:34:09.024Z,13.26
2019-03-31T01:35:08.948Z,13.18
2019-03-31T01:36:08.937Z,13.13
2019-03-31T01:37:08.949Z,13.13
2019-03-31T01:38:09.040Z,13.13
2019-03-31T01:39:08.944Z,13.13
2019-03-31T01:40:08.928Z,13.13
2019-03-31T01:41:08.888Z,13.11
2019-03-31T01:42:08.889Z,13.09
2019-03-31T01:43:08.892Z,13.09
2019-03-31T01:44:08.867Z,13.01
2019-03-31T01:45:08.872Z,13.08
2019-03-31T01:46:08.825Z,13.03
2019-03-31T01:47:08.815Z,12.96
2019-03-31T01:48:08.824Z,13.01
2019-03-31T01:49:08.831Z,12.94
2019-03-31T01:50:08.803Z,13.00
2019-03-31T01:51:08.780Z,12.93
2019-03-31T01:52:08.766Z,12.88
2019-03-31T01:53:08.776Z,12.90
2019-03-31T01:54:08.732Z,12.91
2019-03-31T01:55:08.734Z,12.85
2019-03-31T01:56:08.714Z,12.87
2019-03-31T01:57:08.697Z,12.78
2019-03-31T01:58:08.716Z,12.75
2019-03-31T01:59:08.692Z,12.79
2019-03-31T02:00:08.666Z,12.76
2019-03-31T02:01:08.675Z,12.75
2019-03-31T02:02:08.652Z,12.73
2019-03-31T02:03:08.674Z,12.75
2019-03-31T02:04:08.624Z,12.76
2019-03-31T02:05:08.605Z,12.64
2019-03-31T02:06:08.610Z,12.68
2019-03-31T02:07:08.647Z,12.68
2019-03-31T02:08:08.595Z,12.60
2019-03-31T02:09:08.566Z,12.64
2019-03-31T02:10:08.590Z,12.61
2019-03-31T02:11:08.544Z,12.55
2019-03-31T02:12:08.545Z,12.53
2019-03-31T02:13:08.571Z,12.57
2019-03-31T02:14:08.505Z,12.47
2019-03-31T02:15:08.496Z,12.54
2019-03-31T02:16:08.502Z,12.50
2019-03-31T02:17:08.503Z,12.53
2019-03-31T02:18:08.500Z,12.46
2019-03-31T02:19:09.642Z,12.42
2019-03-31T02:20:08.442Z,12.33
2019-03-31T02:21:08.461Z,12.36
2019-03-31T02:22:08.437Z,12.36
2019-03-31T02:23:08.420Z,12.39
2019-03-31T02:24:08.459Z,12.33
2019-03-31T02:25:08.382Z,12.38
2019-03-31T02:26:08.373Z,12.46
2019-03-31T02:27:08.384Z,12.36
2019-03-31T02:28:08.360Z,12.38
2019-03-31T02:29:08.368Z,12.27
2019-03-31T02:30:08.352Z,12.33
2019-03-31T02:31:08.312Z,12.35
2019-03-31T02:32:22.567Z,12.39
2019-03-31T02:33:09.301Z,12.30
2019-03-31T02:34:08.309Z,12.25
2019-03-31T02:35:08.296Z,12.27
2019-03-31T02:36:08.276Z,12.36
2019-03-31T02:37:08.269Z,12.27
2019-03-31T02:38:08.245Z,12.24
2019-03-31T02:39:08.272Z,12.22
2019-03-31T02:40:08.242Z,12.24
2019-03-31T02:41:08.287Z,12.18
2019-03-31T02:42:08.243Z,12.17
2019-03-31T02:43:08.205Z,12.14
2019-03-31T02:44:08.213Z,12.13
2019-03-31T02:45:08.229Z,12.15
2019-03-31T02:46:08.163Z,12.09
2019-03-31T02:47:08.144Z,12.14
2019-03-31T02:48:08.125Z,12.09
2019-03-31T02:49:08.164Z,12.15
2019-03-31T02:50:08.111Z,12.05
2019-03-31T02:51:08.115Z,12.13
2019-03-31T02:52:08.111Z,12.07
2019-03-31T02:53:08.086Z,12.18
2019-03-31T02:54:08.125Z,12.07
2019-03-31T02:55:08.104Z,12.15
2019-03-31T02:56:08.061Z,12.02
2019-03-31T02:57:08.099Z,12.09
2019-03-31T02:58:08.008Z,12.06
2019-03-31T02:59:08.020Z,12.03
2019-03-31T03:00:08.007Z,12.10
2019-03-31T03:01:08.010Z,11.91
2019-03-31T03:02:07.993Z,11.99
2019-03-31T03:03:07.969Z,12.07
2019-03-31T03:04:08.219Z,12.05
2019-03-31T03:05:18.911Z,11.99
2019-03-31T03:06:08.949Z,11.90
2019-03-31T03:07:07.950Z,12.03
2019-03-31T03:08:07.911Z,11.96
2019-03-31T03:09:08.019Z,11.97
2019-03-31T03:10:07.890Z,11.88
2019-03-31T03:11:07.881Z,12.03
2019-03-31T03:12:07.864Z,11.97
2019-03-31T03:13:07.854Z,11.95
2019-03-31T03:14:07.858Z,11.86
2019-03-31T03:15:07.835Z,12.00
2019-03-31T03:16:07.821Z,11.96
2019-03-31T03:17:07.817Z,11.83
2019-03-31T03:18:07.816Z,11.88
2019-03-31T03:19:07.803Z,11.91
2019-03-31T03:20:07.781Z,11.90
2019-03-31T03:21:07.773Z,11.84
2019-03-31T03:22:07.793Z,11.86
2019-03-31T03:23:07.733Z,11.77
2019-03-31T03:24:07.760Z,11.74
2019-03-31T03:25:07.733Z,11.79
2019-03-31T03:26:07.749Z,11.80
2019-03-31T03:27:07.699Z,11.87
2019-03-31T03:28:07.690Z,11.71
2019-03-31T03:29:07.707Z,11.86
2019-03-31T03:30:07.683Z,11.68
2019-03-31T03:31:14.692Z,11.77
2019-03-31T03:32:08.674Z,11.68
2019-03-31T03:33:17.584Z,11.69
2019-03-31T03:34:08.648Z,11.66
2019-03-31T03:35:07.599Z,11.66
2019-03-31T03:36:07.595Z,11.68
2019-03-31T03:37:07.579Z,11.68
2019-03-31T03:38:07.564Z,11.61
2019-03-31T03:39:07.572Z,11.69
2019-03-31T03:40:07.576Z,11.65
2019-03-31T03:41:07.588Z,11.66
2019-03-31T03:42:07.529Z,11.58
2019-03-31T03:43:07.513Z,11.66
2019-03-31T03:44:07.526Z,11.63
2019-03-31T03:45:07.488Z,11.65
2019-03-31T03:46:07.492Z,11.59
2019-03-31T03:47:07.487Z,11.62
2019-03-31T03:48:07.563Z,11.62
2019-03-31T03:49:07.550Z,11.54
2019-03-31T03:50:07.432Z,11.46
2019-03-31T03:51:07.433Z,11.56
2019-03-31T03:52:07.422Z,11.53
2019-03-31T03:53:07.408Z,11.48
2019-03-31T03:54:07.396Z,11.43
2019-03-31T03:55:07.438Z,11.51
2019-03-31T03:56:07.382Z,11.50
2019-03-31T03:57:07.363Z,11.38
2019-03-31T03:58:07.369Z,11.43
2019-03-31T03:59:07.364Z,11.40
2019-03-31T04:00:07.357Z,11.40
2019-03-31T04:01:07.316Z,11.40
2019-03-31T04:02:07.304Z,11.37
2019-03-31T04:03:07.280Z,11.46
2019-03-31T04:04:07.277Z,11.40
2019-03-31T04:05:07.297Z,11.35
2019-03-31T04:06:07.272Z,11.40
2019-03-31T04:07:07.267Z,11.32
2019-03-31T04:08:07.233Z,11.35
2019-03-31T04:09:07.237Z,11.32
2019-03-31T04:10:07.234Z,11.37
2019-03-31T04:11:07.252Z,11.33
2019-03-31T04:12:07.212Z,11.41
2019-03-31T04:13:07.177Z,11.33
2019-03-31T04:14:07.163Z,11.30
2019-03-31T04:15:07.163Z,11.29
2019-03-31T04:16:07.169Z,11.32
2019-03-31T04:17:07.128Z,11.29
2019-03-31T04:18:07.111Z,11.14
2019-03-31T04:19:07.103Z,11.17
2019-03-31T04:20:07.210Z,11.17
2019-03-31T04:21:07.099Z,11.19
2019-03-31T04:22:07.079Z,11.15
2019-03-31T04:23:07.101Z,11.10
2019-03-31T04:24:07.051Z,11.12
2019-03-31T04:25:07.058Z,11.11
2019-03-31T04:26:07.038Z,11.12
2019-03-31T04:27:07.049Z,11.11
2019-03-31T04:28:07.027Z,11.04
2019-03-31T04:29:07.029Z,11.04
2019-03-31T04:30:07.017Z,11.05
2019-03-31T04:31:06.970Z,11.01
2019-03-31T04:32:06.977Z,10.95
2019-03-31T04:33:06.954Z,10.93
2019-03-31T04:34:06.939Z,10.95
2019-03-31T04:35:06.945Z,10.97
2019-03-31T04:36:06.951Z,10.95
2019-03-31T04:37:06.900Z,10.93
2019-03-31T04:38:06.910Z,10.96
2019-03-31T04:39:06.917Z,10.86
2019-03-31T04:40:06.874Z,10.86
2019-03-31T04:41:06.875Z,10.87
2019-03-31T04:42:06.847Z,10.92
2019-03-31T04:43:06.849Z,10.89
2019-03-31T04:44:06.859Z,10.87
2019-03-31T04:45:06.885Z,10.96
2019-03-31T04:46:06.901Z,10.92
2019-03-31T04:47:06.791Z,10.95
2019-03-31T04:48:06.785Z,10.92
2019-03-31T04:49:06.784Z,10.95
2019-03-31T04:50:06.768Z,10.82
2019-03-31T04:51:06.906Z,10.82
2019-03-31T04:52:06.733Z,10.78
2019-03-31T04:53:06.727Z,10.75
2019-03-31T04:54:06.746Z,10.77
2019-03-31T04:55:06.705Z,10.79
2019-03-31T04:56:06.762Z,10.71
2019-03-31T04:57:06.670Z,10.71
2019-03-31T04:58:06.667Z,10.68
2019-03-31T04:59:06.660Z,10.64
2019-03-31T05:00:06.653Z,10.67
2019-03-31T05:01:06.673Z,10.62
2019-03-31T05:02:06.624Z,10.64
2019-03-31T05:03:06.637Z,10.56
2019-03-31T05:04:06.595Z,10.57
2019-03-31T05:05:06.589Z,10.53
2019-03-31T05:06:06.604Z,10.57
2019-03-31T05:07:06.587Z,10.49
2019-03-31T05:08:06.560Z,10.60
2019-03-31T05:09:06.553Z,10.59
2019-03-31T05:10:06.547Z,10.56
2019-03-31T05:11:06.529Z,10.52
2019-03-31T05:12:06.533Z,10.49
2019-03-31T05:13:06.541Z,10.56
2019-03-31T05:14:06.492Z,10.49
2019-03-31T05:15:06.471Z,10.54
2019-03-31T05:16:06.482Z,10.46
2019-03-31T05:17:06.484Z,10.40
2019-03-31T05:18:06.463Z,10.37
2019-03-31T05:19:06.518Z,10.31
2019-03-31T05:20:06.423Z,10.37
2019-03-31T05:21:06.481Z,10.33
2019-03-31T05:22:06.425Z,10.31
2019-03-31T05:23:06.408Z,10.28
2019-03-31T05:24:06.377Z,10.30
2019-03-31T05:25:06.440Z,10.28
2019-03-31T05:26:06.370Z,10.31
2019-03-31T05:27:06.359Z,10.34
2019-03-31T05:28:06.352Z,10.31
2019-03-31T05:29:06.332Z,10.33
2019-03-31T05:30:06.329Z,10.33
2019-03-31T05:31:06.306Z,10.27
2019-03-31T05:32:06.333Z,10.27
2019-03-31T05:33:06.277Z,10.31
2019-03-31T05:34:18.336Z,10.33
2019-03-31T05:35:07.251Z,10.31
2019-03-31T05:36:06.236Z,10.15
2019-03-31T05:37:06.248Z,10.18
2019-03-31T05:38:06.223Z,10.20
2019-03-31T05:39:06.231Z,10.19
2019-03-31T05:40:06.205Z,10.22
2019-03-31T05:41:06.191Z,10.20
2019-03-31T05:42:06.195Z,10.20
2019-03-31T05:43:06.170Z,10.13
2019-03-31T05:44:06.259Z,10.20
2019-03-31T05:45:06.152Z,10.15
2019-03-31T05:46:06.141Z,10.23
2019-03-31T05:47:06.143Z,10.13
2019-03-31T05:48:06.107Z,10.20
2019-03-31T05:49:06.133Z,10.13
2019-03-31T05:50:06.111Z,10.23
2019-03-31T05:51:06.089Z,10.13
2019-03-31T05:52:06.097Z,10.19
2019-03-31T05:53:06.055Z,10.19
2019-03-31T05:54:06.045Z,10.13
2019-03-31T05:55:06.053Z,10.10
2019-03-31T05:56:06.045Z,10.12
2019-03-31T05:57:06.037Z,10.12
2019-03-31T05:58:06.013Z,10.04
2019-03-31T05:59:05.988Z,10.08
2019-03-31T06:00:05.980Z,9.98
2019-03-31T06:01:05.976Z,9.91
2019-03-31T06:02:05.994Z,9.91
2019-03-31T06:03:05.962Z,9.91
2019-03-31T06:04:05.934Z,9.91
2019-03-31T06:05:05.927Z,9.90
2019-03-31T06:06:05.910Z,9.82
2019-03-31T06:07:05.924Z,9.86
2019-03-31T06:08:06.579Z,9.86
2019-03-31T06:09:05.922Z,9.94
2019-03-31T06:10:05.868Z,9.90
2019-03-31T06:11:05.855Z,9.88
2019-03-31T06:12:05.882Z,9.85
2019-03-31T06:13:05.846Z,9.86
2019-03-31T06:14:05.855Z,9.95
2019-03-31T06:15:05.815Z,9.85
2019-03-31T06:16:05.802Z,9.82
2019-03-31T06:17:05.798Z,9.88
2019-03-31T06:18:05.807Z,9.91
2019-03-31T06:19:05.778Z,9.94
2019-03-31T06:20:05.751Z,9.88
2019-03-31T06:21:05.748Z,9.86
2019-03-31T06:22:05.745Z,9.90
2019-03-31T06:23:05.740Z,9.93
2019-03-31T06:24:05.758Z,9.95
2019-03-31T06:25:06.104Z,9.98
2019-03-31T06:26:05.697Z,10.00
2019-03-31T06:27:05.674Z,9.88
2019-03-31T06:28:05.686Z,9.94
2019-03-31T06:29:05.688Z,9.98
2019-03-31T06:30:05.659Z,9.91
2019-03-31T06:31:05.633Z,9.90
2019-03-31T06:32:05.637Z,9.85
2019-03-31T06:33:05.632Z,9.86
2019-03-31T06:34:05.603Z,9.88
2019-03-31T06:35:05.593Z,9.93
2019-03-31T06:36:05.651Z,9.83
2019-03-31T06:37:05.575Z,9.82
2019-03-31T06:38:05.599Z,9.90
2019-03-31T06:39:05.541Z,9.91
2019-03-31T06:40:05.538Z,9.94
2019-03-31T06:41:05.722Z,9.93
2019-03-31T06:42:05.578Z,9.85
2019-03-31T06:43:05.525Z,9.88
2019-03-31T06:44:05.483Z,9.90
2019-03-31T06:45:05.512Z,9.91
2019-03-31T06:46:05.464Z,9.91
2019-03-31T06:47:05.571Z,9.91
2019-03-31T06:48:05.579Z,9.93
2019-03-31T06:49:05.445Z,10.00
2019-03-31T06:50:05.420Z,10.08
2019-03-31T06:51:05.412Z,10.02
2019-03-31T06:52:05.406Z,10.02
2019-03-31T06:53:05.437Z,10.13
2019-03-31T06:54:05.415Z,10.13
2019-03-31T06:55:05.361Z,10.13
2019-03-31T06:56:05.369Z,10.13
2019-03-31T06:57:05.352Z,10.22
2019-03-31T06:58:05.339Z,10.26
2019-03-31T06:59:05.357Z,10.30
2019-03-31T07:00:05.327Z,10.31
2019-03-31T07:01:05.299Z,10.40
2019-03-31T07:02:05.298Z,10.38
2019-03-31T07:03:05.289Z,10.30
2019-03-31T07:04:05.321Z,10.31
2019-03-31T07:05:05.261Z,10.27
2019-03-31T07:06:05.255Z,10.26
2019-03-31T07:07:05.304Z,10.28
2019-03-31T07:08:05.337Z,10.28
2019-03-31T07:09:05.290Z,10.26
2019-03-31T07:10:05.229Z,10.20
2019-03-31T07:11:05.231Z,10.22
2019-03-31T07:12:05.248Z,10.28
2019-03-31T07:13:05.193Z,10.15
2019-03-31T07:14:06.094Z,10.23
2019-03-31T07:15:06.121Z,10.20
2019-03-31T07:16:05.182Z,10.16
2019-03-31T07:17:05.134Z,10.15
2019-03-31T07:18:05.147Z,10.20
2019-03-31T07:19:05.186Z,10.18
2019-03-31T07:20:05.131Z,10.34
2019-03-31T07:21:05.125Z,10.34
2019-03-31T07:22:05.138Z,10.41
2019-03-31T07:23:05.076Z,10.43
2019-03-31T07:24:05.125Z,10.41
2019-03-31T07:25:05.027Z,10.45
2019-03-31T07:26:05.071Z,10.53
2019-03-31T07:27:05.043Z,10.59
2019-03-31T07:28:05.054Z,10.67
2019-03-31T07:29:05.095Z,10.65
2019-03-31T07:30:07.208Z,10.74
2019-03-31T07:31:05.035Z,10.74
2019-03-31T07:32:04.966Z,10.74
2019-03-31T07:33:05.088Z,10.75
2019-03-31T07:34:04.990Z,10.89
2019-03-31T07:35:17.781Z,10.85
2019-03-31T07:36:05.957Z,10.83
2019-03-31T07:37:04.950Z,10.85
2019-03-31T07:38:04.914Z,10.82
2019-03-31T07:39:05.020Z,10.82
2019-03-31T07:40:05.093Z,10.86
2019-03-31T07:41:12.498Z,10.90
2019-03-31T07:42:05.910Z,10.93
2019-03-31T07:43:05.203Z,10.95
2019-03-31T07:44:04.898Z,10.93
2019-03-31T07:45:04.962Z,10.90
2019-03-31T07:46:04.793Z,10.95
2019-03-31T07:47:04.836Z,10.87
2019-03-31T07:48:07.945Z,10.93
2019-03-31T07:49:04.758Z,10.92
2019-03-31T07:50:04.916Z,10.95
2019-03-31T07:51:04.753Z,10.97
2019-03-31T07:52:04.730Z,10.97
2019-03-31T07:53:04.741Z,11.00
2019-03-31T07:54:04.735Z,10.90
2019-03-31T07:55:04.797Z,11.00
2019-03-31T07:56:04.749Z,11.01
2019-03-31T07:57:06.965Z,10.96
2019-03-31T07:58:04.703Z,10.92
2019-03-31T07:59:04.761Z,10.93
2019-03-31T08:00:04.700Z,11.00
2019-03-31T08:01:04.635Z,10.89
2019-03-31T08:02:04.765Z,10.96
2019-03-31T08:03:04.596Z,10.96
2019-03-31T08:04:04.601Z,10.93
2019-03-31T08:05:04.709Z,10.96
2019-03-31T08:06:04.593Z,10.92
2019-03-31T08:07:04.605Z,10.93
2019-03-31T08:08:04.621Z,10.89
2019-03-31T08:09:04.558Z,10.93
2019-03-31T08:10:04.557Z,10.97
2019-03-31T08:11:04.558Z,10.97
2019-03-31T08:12:04.516Z,10.87
2019-03-31T08:13:04.502Z,10.90
2019-03-31T08:14:04.480Z,10.92
2019-03-31T08:15:04.528Z,10.82
2019-03-31T08:16:04.460Z,10.85
2019-03-31T08:17:04.487Z,10.83
2019-03-31T08:18:04.443Z,10.87
2019-03-31T08:19:04.423Z,10.82
2019-03-31T08:20:04.477Z,10.72
2019-03-31T08:21:04.442Z,10.82
2019-03-31T08:22:04.413Z,10.83
2019-03-31T08:23:04.418Z,10.83
2019-03-31T08:24:06.688Z,10.85
2019-03-31T08:25:04.431Z,10.85
2019-03-31T08:26:04.398Z,10.87
2019-03-31T08:27:05.690Z,10.83
2019-03-31T08:28:04.410Z,10.89
2019-03-31T08:29:04.336Z,10.90
2019-03-31T08:30:04.377Z,10.92
2019-03-31T08:31:04.310Z,10.92
2019-03-31T08:32:04.313Z,10.89
2019-03-31T08:33:04.295Z,10.90
2019-03-31T08:34:05.153Z,11.01
2019-03-31T08:35:04.244Z,11.08
2019-03-31T08:36:04.613Z,11.04
2019-03-31T08:37:04.232Z,11.20
2019-03-31T08:38:04.292Z,11.29
2019-03-31T08:39:04.204Z,11.25
2019-03-31T08:40:04.234Z,11.29
2019-03-31T08:41:04.544Z,11.38
2019-03-31T08:42:04.164Z,11.33
2019-03-31T08:43:04.152Z,11.41
2019-03-31T08:44:04.134Z,11.44
2019-03-31T08:45:04.131Z,11.44
2019-03-31T08:46:04.194Z,11.37
2019-03-31T08:47:04.108Z,11.30
2019-03-31T08:48:04.098Z,11.28
2019-03-31T08:49:04.199Z,11.15
2019-03-31T08:50:04.225Z,11.19
2019-03-31T08:51:04.122Z,11.12
2019-03-31T08:52:04.078Z,11.22
2019-03-31T08:53:04.049Z,11.32
2019-03-31T08:54:04.039Z,11.28
2019-03-31T08:55:04.045Z,11.29
2019-03-31T08:56:04.062Z,11.29
2019-03-31T08:57:04.000Z,11.32
2019-03-31T08:58:04.009Z,11.32
2019-03-31T08:59:03.974Z,11.40
2019-03-31T09:00:03.960Z,11.43
2019-03-31T09:01:03.960Z,11.48
2019-03-31T09:02:04.058Z,11.38
2019-03-31T09:03:03.994Z,11.32
2019-03-31T09:04:03.912Z,11.30
2019-03-31T09:05:03.917Z,11.22
2019-03-31T09:06:03.979Z,11.30
2019-03-31T09:07:03.890Z,11.28
2019-03-31T09:08:03.997Z,11.29
2019-03-31T09:09:03.870Z,11.26
2019-03-31T09:10:03.848Z,11.29
2019-03-31T09:11:03.915Z,11.30
2019-03-31T09:12:04.179Z,11.14
2019-03-31T09:13:03.816Z,11.25
2019-03-31T09:14:03.876Z,11.26
2019-03-31T09:15:03.845Z,11.30
2019-03-31T09:16:03.833Z,11.30
2019-03-31T09:17:03.801Z,11.20
2019-03-31T09:18:03.805Z,11.28
2019-03-31T09:19:03.771Z,11.26
2019-03-31T09:20:03.741Z,11.28
2019-03-31T09:21:03.767Z,11.23
2019-03-31T09:22:03.715Z,11.29
2019-03-31T09:23:03.773Z,11.33
2019-03-31T09:24:03.704Z,11.33
2019-03-31T09:25:03.711Z,11.38
2019-03-31T09:26:03.753Z,11.33
2019-03-31T09:27:03.662Z,11.38
2019-03-31T09:28:03.679Z,11.44
2019-03-31T09:29:03.670Z,11.41
2019-03-31T09:30:03.697Z,11.47
2019-03-31T09:31:04.590Z,11.44
2019-03-31T09:32:04.354Z,11.53
2019-03-31T09:33:06.706Z,11.44
2019-03-31T09:34:03.623Z,11.40
2019-03-31T09:35:03.568Z,11.48
2019-03-31T09:36:15.582Z,11.40
2019-03-31T09:37:04.571Z,11.33
2019-03-31T09:38:03.541Z,11.38
2019-03-31T09:39:03.528Z,11.30
2019-03-31T09:40:03.516Z,11.19
2019-03-31T09:41:03.517Z,11.14
2019-03-31T09:42:03.523Z,11.19
2019-03-31T09:43:03.488Z,11.26
2019-03-31T09:44:03.482Z,11.26
2019-03-31T09:45:03.493Z,11.17
2019-03-31T09:46:03.534Z,11.14
2019-03-31T09:47:03.459Z,11.10
2019-03-31T09:48:03.442Z,11.11
2019-03-31T09:49:03.460Z,11.04
2019-03-31T09:50:03.430Z,11.03
2019-03-31T09:51:03.404Z,11.08
2019-03-31T09:52:03.429Z,11.07
2019-03-31T09:53:03.381Z,11.10
2019-03-31T09:54:03.364Z,11.04
2019-03-31T09:55:03.347Z,11.05
2019-03-31T09:56:03.342Z,11.05
2019-03-31T09:57:03.352Z,11.07
2019-03-31T09:58:03.326Z,11.04
2019-03-31T09:59:03.420Z,11.07
2019-03-31T10:00:03.310Z,11.04
2019-03-31T10:01:03.294Z,11.10
2019-03-31T10:02:03.297Z,11.08
2019-03-31T10:03:03.300Z,10.97
2019-03-31T10:04:03.271Z,10.95
2019-03-31T10:05:03.241Z,11.00
2019-03-31T10:06:10.461Z,11.00
2019-03-31T10:07:04.251Z,10.97
2019-03-31T10:08:03.205Z,10.92
2019-03-31T10:09:03.188Z,10.92
2019-03-31T10:10:03.248Z,11.01
2019-03-31T10:11:03.227Z,10.95
2019-03-31T10:12:03.178Z,11.04
2019-03-31T10:13:03.148Z,11.04
2019-03-31T10:14:03.128Z,11.12
2019-03-31T10:15:03.122Z,11.10
2019-03-31T10:16:03.139Z,11.14
2019-03-31T10:17:03.099Z,11.19
2019-03-31T10:18:03.150Z,11.17
2019-03-31T10:19:03.073Z,11.11
2019-03-31T10:20:03.085Z,11.19
2019-03-31T10:21:03.064Z,11.20
2019-03-31T10:22:03.039Z,11.25
2019-03-31T10:23:03.062Z,11.20
2019-03-31T10:24:03.102Z,11.26
2019-03-31T10:25:03.007Z,11.38
2019-03-31T10:26:02.994Z,11.44
2019-03-31T10:27:03.010Z,11.53
2019-03-31T10:28:03.012Z,12.71
2019-03-31T10:29:03.239Z,14.48
2019-03-31T10:30:03.099Z,15.30
2019-03-31T10:31:02.944Z,15.03
2019-03-31T10:32:02.928Z,14.81
2019-03-31T10:33:02.947Z,14.38
2019-03-31T10:34:02.913Z,14.26
2019-03-31T10:35:02.929Z,14.04
2019-03-31T10:36:02.882Z,13.75
2019-03-31T10:37:02.871Z,13.68
2019-03-31T10:38:02.874Z,13.52
2019-03-31T10:39:02.902Z,13.37
2019-03-31T10:40:02.861Z,13.29
2019-03-31T10:41:02.889Z,13.12
2019-03-31T10:42:02.814Z,13.01
2019-03-31T10:43:02.809Z,12.91
2019-03-31T10:44:02.815Z,12.79
2019-03-31T10:45:02.787Z,12.73
2019-03-31T10:46:02.767Z,12.71
2019-03-31T10:47:02.755Z,12.68
2019-03-31T10:48:02.760Z,12.54
2019-03-31T10:49:02.747Z,12.51
2019-03-31T10:50:02.727Z,12.46
2019-03-31T10:51:02.732Z,12.38
2019-03-31T10:52:02.697Z,12.35
2019-03-31T10:53:02.687Z,12.36
2019-03-31T10:54:04.556Z,12.73
2019-03-31T10:55:02.670Z,12.90
2019-03-31T10:56:02.698Z,13.80
2019-03-31T10:57:02.643Z,14.43
2019-03-31T10:58:02.636Z,15.65
2019-03-31T10:59:02.644Z,16.50
2019-03-31T11:00:02.623Z,16.01
2019-03-31T11:01:02.593Z,15.82
2019-03-31T11:02:02.590Z,16.61
2019-03-31T11:03:02.650Z,18.07
2019-03-31T11:04:02.589Z,19.30
2019-03-31T11:05:02.556Z,20.43
2019-03-31T11:06:02.549Z,21.36
2019-03-31T11:07:03.622Z,22.03
2019-03-31T11:08:02.524Z,22.53
2019-03-31T11:09:02.574Z,22.77
2019-03-31T11:10:02.558Z,23.17
2019-03-31T11:11:02.490Z,23.66
2019-03-31T11:12:02.492Z,24.18
2019-03-31T11:13:02.481Z,24.40
2019-03-31T11:14:02.471Z,24.83
2019-03-31T11:15:02.485Z,25.22
2019-03-31T11:16:02.450Z,25.51
2019-03-31T11:17:02.450Z,25.00
2019-03-31T11:18:02.437Z,24.32
2019-03-31T11:19:02.415Z,23.18
2019-03-31T11:20:02.459Z,22.28
2019-03-31T11:21:02.389Z,21.40
2019-03-31T11:22:02.418Z,20.96
2019-03-31T11:23:02.372Z,20.62
2019-03-31T11:24:02.348Z,20.03
2019-03-31T11:25:02.367Z,19.41
2019-03-31T11:26:02.334Z,18.89
2019-03-31T11:27:02.320Z,18.37
2019-03-31T11:28:02.310Z,18.15
2019-03-31T11:29:02.296Z,17.79
2019-03-31T11:30:02.326Z,17.54
2019-03-31T11:31:02.277Z,17.30
2019-03-31T11:32:02.284Z,17.11
2019-03-31T11:33:02.260Z,16.86
2019-03-31T11:34:02.244Z,16.68
2019-03-31T11:35:02.275Z,16.39
2019-03-31T11:36:02.223Z,16.29
2019-03-31T11:37:12.828Z,16.09
2019-03-31T11:38:03.207Z,15.94
2019-03-31T11:39:02.207Z,15.65
2019-03-31T11:40:02.212Z,15.58
2019-03-31T11:41:02.176Z,15.39
2019-03-31T11:42:02.149Z,15.19
2019-03-31T11:43:02.143Z,15.04
2019-03-31T11:44:02.137Z,14.84
2019-03-31T11:45:02.168Z,14.63
2019-03-31T11:46:02.106Z,14.45
2019-03-31T11:47:02.111Z,14.38
2019-03-31T11:48:02.103Z,14.22
2019-03-31T11:49:02.070Z,14.15
2019-03-31T11:50:02.171Z,14.22
2019-03-31T11:51:02.084Z,14.13
2019-03-31T11:52:02.049Z,14.13
2019-03-31T11:53:02.171Z,15.64
2019-03-31T11:54:02.019Z,17.31
2019-03-31T11:55:02.033Z,17.09
2019-03-31T11:56:02.048Z,16.82
2019-03-31T11:57:01.997Z,16.59
2019-03-31T11:58:01.967Z,17.09
2019-03-31T11:59:02.075Z,18.20
2019-03-31T12:00:01.992Z,19.07
2019-03-31T12:01:01.979Z,19.81
2019-03-31T12:02:01.933Z,20.36
2019-03-31T12:03:01.938Z,20.99
2019-03-31T12:04:01.940Z,21.69
2019-03-31T12:05:01.892Z,22.35
2019-03-31T12:06:01.900Z,22.98
2019-03-31T12:07:01.880Z,23.47
2019-03-31T12:08:01.887Z,23.89
2019-03-31T12:09:01.924Z,24.30
2019-03-31T12:10:01.847Z,24.54
2019-03-31T12:11:02.213Z,24.65
2019-03-31T12:12:01.995Z,24.62
2019-03-31T12:13:02.145Z,23.51
2019-03-31T12:14:01.806Z,23.15
2019-03-31T12:15:01.852Z,22.72
2019-03-31T12:16:02.283Z,23.15
2019-03-31T12:17:01.840Z,23.14
2019-03-31T12:18:01.784Z,22.91
2019-03-31T12:19:01.757Z,22.68
2019-03-31T12:20:01.805Z,22.78
2019-03-31T12:21:01.879Z,22.98
2019-03-31T12:22:01.781Z,22.99
2019-03-31T12:23:01.786Z,22.43
2019-03-31T12:24:01.724Z,22.05
2019-03-31T12:25:01.740Z,21.79
2019-03-31T12:26:01.680Z,21.67
2019-03-31T12:27:01.742Z,21.74
2019-03-31T12:28:01.666Z,21.67
2019-03-31T12:29:01.672Z,21.57
2019-03-31T12:30:01.632Z,21.67
2019-03-31T12:31:01.640Z,21.69
2019-03-31T12:32:01.748Z,21.57
2019-03-31T12:33:01.957Z,21.50
2019-03-31T12:34:01.643Z,21.58
2019-03-31T12:35:01.645Z,21.66
2019-03-31T12:36:01.604Z,21.55
2019-03-31T12:37:02.225Z,21.29
2019-03-31T12:38:01.596Z,20.81
2019-03-31T12:39:01.568Z,20.44
2019-03-31T12:40:01.689Z,20.24
2019-03-31T12:41:02.168Z,19.63
2019-03-31T12:42:01.538Z,19.31
2019-03-31T12:43:01.520Z,18.90
2019-03-31T12:44:01.474Z,18.70
2019-03-31T12:45:01.469Z,18.53
2019-03-31T12:46:01.441Z,18.40
2019-03-31T12:47:01.477Z,18.18
2019-03-31T12:48:01.707Z,17.95
2019-03-31T12:49:01.441Z,17.70
2019-03-31T12:50:01.466Z,17.53
2019-03-31T12:51:01.390Z,17.33
2019-03-31T12:52:03.190Z,17.31
2019-03-31T12:53:01.383Z,17.29
2019-03-31T12:54:01.375Z,17.26